ESST/TYF METAR and TAF weather

Enter ICAO airport designator
Station Type Date Time Source
ESST METAR 2019/10/16 20:20 UTC NOAA

ESST 162020Z AUTO 35004KT 9999 -RA BKN017/// OVC027/// 06/06 Q1009


Station Type Date Time Source
ESST Decoded METAR 2019/10/16 20:20 UTC NOAA

Station name not available
Oct 16, 2019 - 04:20 PM EDT / 2019.10.16 2020 UTC
Wind: from the N (350 degrees) at 5 MPH (4 KT):0
Visibility: greater than 7 mile(s):0
Sky conditions: overcast
Weather: light rain
Temperature: 42 F (6 C)
Dew Point: 42 F (6 C)
Relative Humidity: 100%
Pressure (altimeter): 29.80 in. Hg (1009 hPa)
ob: ESST 162020Z AUTO 35004KT 9999 -RA BKN017/// OVC027/// 06/06 Q1009
cycle: 20

Station Type Date Time Source
ESST TAF UTC NOAA

Error!

Example: see airport list